Time;durP1;ratioP1;P1;durP2;ratioP2;P2;SDS_P1;SDS_P2;PMS_P1;PMS_P2;Temp;Humidity;BMP_temperature;BMP_pressure;BME280_temperature;BME280_humidity;BME280_pressure;Samples;Min_cycle;Max_cycle;Signal;HPM_P1;HPM_P2
2023/12/20 00:00:01;;;;;;;19.80;3.13;;;;;;;;;;5030079;28;20046;-65
2023/12/20 00:02:27;;;;;;;25.73;3.53;;;;;;;;;;5028082;28;20518;-65
2023/12/20 00:04:53;;;;;;;20.00;4.27;;;;;;;;;;5029128;28;20471;-65
2023/12/20 00:07:19;;;;;;;25.10;3.50;;;;;;;;;;5031704;28;20084;-65
2023/12/20 00:09:45;;;;;;;16.83;3.10;;;;;;;;;;5029868;28;20041;-65
2023/12/20 00:12:11;;;;;;;13.17;3.73;;;;;;;;;;5030771;28;20053;-65
2023/12/20 00:14:37;;;;;;;24.90;3.20;;;;;;;;;;5030167;28;20156;-65
2023/12/20 00:17:03;;;;;;;17.63;3.10;;;;;;;;;;5031489;28;20050;-65
2023/12/20 00:19:29;;;;;;;21.83;3.73;;;;;;;;;;5029500;28;20064;-65
2023/12/20 00:21:55;;;;;;;17.67;3.40;;;;;;;;;;5030384;28;20060;-65
2023/12/20 00:24:21;;;;;;;18.60;2.70;;;;;;;;;;5030266;28;20459;-65
2023/12/20 00:26:47;;;;;;;21.53;2.70;;;;;;;;;;5029580;28;20041;-65
2023/12/20 00:29:13;;;;;;;13.67;3.50;;;;;;;;;;5029139;28;20499;-65
2023/12/20 00:31:39;;;;;;;25.23;3.30;;;;;;;;;;5028980;28;20071;-65
2023/12/20 00:34:05;;;;;;;20.57;3.53;;;;;;;;;;5029093;28;20060;-65
2023/12/20 00:36:31;;;;;;;20.03;3.17;;;;;;;;;;5028807;28;20188;-65
2023/12/20 00:38:57;;;;;;;18.80;3.53;;;;;;;;;;5029963;28;20049;-65
2023/12/20 00:41:23;;;;;;;16.70;3.67;;;;;;;;;;5030018;28;20053;-65
2023/12/20 00:43:49;;;;;;;27.47;4.27;;;;;;;;;;5030518;28;20057;-65
2023/12/20 00:46:15;;;;;;;20.80;3.70;;;;;;;;;;5030641;28;20056;-65
2023/12/20 00:48:42;;;;;;;21.07;3.57;;;;;;;;;;5030140;28;20184;-65
2023/12/20 00:51:08;;;;;;;25.37;4.40;;;;;;;;;;5030104;28;20462;-65
2023/12/20 00:53:34;;;;;;;27.03;3.30;;;;;;;;;;5030719;28;20077;-65
2023/12/20 00:56:00;;;;;;;18.93;3.13;;;;;;;;;;5030479;28;20117;-65
2023/12/20 00:58:27;;;;;;;20.60;2.93;;;;;;;;;;5030045;28;20388;-65
2023/12/20 01:00:53;;;;;;;14.87;2.67;;;;;;;;;;5040371;28;20099;-65
2023/12/20 01:03:20;;;;;;;25.10;3.33;;;;;;;;;;5050299;28;20041;-65
2023/12/20 01:05:46;;;;;;;20.77;3.33;;;;;;;;;;5050313;28;20052;-65
2023/12/20 01:08:12;;;;;;;25.83;4.13;;;;;;;;;;5049895;28;20415;-65
2023/12/20 01:10:38;;;;;;;21.00;3.67;;;;;;;;;;5050245;28;20052;-65
2023/12/20 01:13:04;;;;;;;22.87;3.73;;;;;;;;;;5050142;28;20047;-65
2023/12/20 01:15:30;;;;;;;26.03;4.13;;;;;;;;;;5050498;28;20055;-64
2023/12/20 01:17:58;;;;;;;22.83;4.20;;;;;;;;;;5049226;28;20044;-64
2023/12/20 01:20:24;;;;;;;19.53;3.57;;;;;;;;;;5050027;28;20060;-64
2023/12/20 01:22:50;;;;;;;18.90;2.93;;;;;;;;;;5050250;28;20562;-65
2023/12/20 01:25:16;;;;;;;23.43;4.30;;;;;;;;;;5049031;28;20110;-65
2023/12/20 01:27:42;;;;;;;22.27;3.60;;;;;;;;;;5049659;28;20064;-65
2023/12/20 01:30:08;;;;;;;23.70;3.40;;;;;;;;;;5049669;28;20045;-65
2023/12/20 01:32:34;;;;;;;24.73;4.23;;;;;;;;;;5049928;28;20100;-65
2023/12/20 01:35:00;;;;;;;22.00;4.03;;;;;;;;;;5038382;28;20046;-65
2023/12/20 01:37:29;;;;;;;29.03;4.03;;;;;;;;;;5029951;28;20049;-65
2023/12/20 01:39:55;;;;;;;19.57;3.67;;;;;;;;;;5029867;28;20434;-65
2023/12/20 01:42:22;;;;;;;24.90;3.67;;;;;;;;;;5029341;28;20061;-65
2023/12/20 01:44:48;;;;;;;16.27;4.20;;;;;;;;;;5029301;28;20057;-65
2023/12/20 01:47:14;;;;;;;26.97;7.23;;;;;;;;;;5028739;28;20045;-65
2023/12/20 01:49:40;;;;;;;25.93;5.27;;;;;;;;;;5025320;28;20099;-65
2023/12/20 01:52:06;;;;;;;24.37;4.00;;;;;;;;;;5028756;28;20491;-65
2023/12/20 01:54:32;;;;;;;27.10;5.10;;;;;;;;;;5027950;28;20527;-65
2023/12/20 01:56:59;;;;;;;21.80;4.30;;;;;;;;;;5036975;28;20068;-65
2023/12/20 01:59:25;;;;;;;30.27;3.93;;;;;;;;;;5028445;28;20072;-65
2023/12/20 02:01:51;;;;;;;21.43;3.60;;;;;;;;;;5028815;28;20054;-64
2023/12/20 02:04:17;;;;;;;29.37;4.73;;;;;;;;;;5028387;28;20045;-65
2023/12/20 02:06:43;;;;;;;30.30;5.93;;;;;;;;;;5029302;28;20046;-65
2023/12/20 02:09:09;;;;;;;23.70;4.33;;;;;;;;;;5035595;28;20122;-65
2023/12/20 02:11:35;;;;;;;29.23;5.57;;;;;;;;;;5029437;28;20045;-65
2023/12/20 02:14:01;;;;;;;25.00;3.33;;;;;;;;;;5029306;28;20068;-65
2023/12/20 02:16:27;;;;;;;28.13;5.37;;;;;;;;;;5029380;28;20056;-65
2023/12/20 02:18:53;;;;;;;19.43;3.57;;;;;;;;;;5029261;28;20045;-65
2023/12/20 02:21:24;;;;;;;15.53;3.10;;;;;;;;;;5023468;28;20050;-65
2023/12/20 02:23:50;;;;;;;23.10;4.60;;;;;;;;;;5009517;28;20415;-65
2023/12/20 02:26:18;;;;;;;13.17;4.13;;;;;;;;;;5023559;28;20042;-64
2023/12/20 02:28:44;;;;;;;23.10;3.30;;;;;;;;;;5028751;28;20049;-65
2023/12/20 02:31:10;;;;;;;25.17;3.33;;;;;;;;;;5029251;28;20049;-65
2023/12/20 02:33:36;;;;;;;22.60;3.60;;;;;;;;;;5029134;28;20400;-65
2023/12/20 02:36:02;;;;;;;28.87;4.17;;;;;;;;;;5027348;28;20058;-65
2023/12/20 02:38:28;;;;;;;25.57;4.60;;;;;;;;;;5028844;28;20136;-66
2023/12/20 02:40:54;;;;;;;29.70;4.20;;;;;;;;;;5029298;28;20120;-66
2023/12/20 02:43:20;;;;;;;29.30;5.80;;;;;;;;;;5031984;28;20481;-66
2023/12/20 02:45:46;;;;;;;25.10;4.47;;;;;;;;;;5032862;28;20045;-66
2023/12/20 02:48:12;;;;;;;31.50;5.33;;;;;;;;;;5032571;28;20053;-66
2023/12/20 02:50:38;;;;;;;27.13;4.80;;;;;;;;;;5032815;28;20553;-65
2023/12/20 02:53:04;;;;;;;33.70;5.30;;;;;;;;;;5032903;28;20054;-66
2023/12/20 02:55:30;;;;;;;36.90;5.07;;;;;;;;;;5032979;28;20052;-65
2023/12/20 02:57:56;;;;;;;37.90;5.10;;;;;;;;;;5032139;28;20045;-66
2023/12/20 03:00:22;;;;;;;40.30;5.23;;;;;;;;;;5046711;28;20041;-65
2023/12/20 03:02:48;;;;;;;32.53;5.90;;;;;;;;;;5052593;28;20048;-66
2023/12/20 03:05:14;;;;;;;33.70;6.10;;;;;;;;;;5038233;28;20056;-66
2023/12/20 03:07:40;;;;;;;34.10;6.10;;;;;;;;;;5032486;28;20419;-65
2023/12/20 03:10:08;;;;;;;36.70;6.33;;;;;;;;;;5032291;28;20080;-65
2023/12/20 03:12:34;;;;;;;30.03;5.43;;;;;;;;;;5032640;28;20053;-65
2023/12/20 03:15:00;;;;;;;36.93;8.03;;;;;;;;;;5032508;28;20045;-65
2023/12/20 03:17:26;;;;;;;36.17;6.73;;;;;;;;;;5033461;28;20564;-66
2023/12/20 03:19:52;;;;;;;24.83;4.67;;;;;;;;;;5032480;28;20091;-65
2023/12/20 03:22:18;;;;;;;31.70;5.67;;;;;;;;;;5030859;28;20041;-66
2023/12/20 03:24:43;;;;;;;36.33;5.70;;;;;;;;;;5030643;28;20049;-66
2023/12/20 03:27:09;;;;;;;31.33;4.97;;;;;;;;;;5030340;28;20465;-66
2023/12/20 03:29:35;;;;;;;38.10;5.50;;;;;;;;;;5030100;28;20057;-66
2023/12/20 03:32:01;;;;;;;34.53;7.60;;;;;;;;;;5030343;28;20049;-66
2023/12/20 03:34:29;;;;;;;35.90;5.93;;;;;;;;;;5029232;28;20048;-65
2023/12/20 03:36:55;;;;;;;32.77;5.80;;;;;;;;;;5030551;28;20068;-65
2023/12/20 03:39:21;;;;;;;32.10;5.07;;;;;;;;;;5029292;28;20424;-65
2023/12/20 03:41:46;;;;;;;43.70;6.03;;;;;;;;;;5030775;28;20045;-66
2023/12/20 03:44:12;;;;;;;38.33;7.47;;;;;;;;;;5030695;28;20183;-65
2023/12/20 03:46:39;;;;;;;43.80;7.13;;;;;;;;;;5030592;28;20045;-65
2023/12/20 03:49:04;;;;;;;27.37;6.20;;;;;;;;;;5029921;28;20045;-66
2023/12/20 03:51:30;;;;;;;44.53;6.13;;;;;;;;;;5030586;28;20095;-65
2023/12/20 03:53:56;;;;;;;42.40;6.00;;;;;;;;;;5029792;28;20041;-66
2023/12/20 03:56:22;;;;;;;46.57;7.43;;;;;;;;;;5029204;28;20049;-66
2023/12/20 03:58:48;;;;;;;31.10;5.33;;;;;;;;;;5030501;28;20499;-65
2023/12/20 04:01:15;;;;;;;40.67;7.30;;;;;;;;;;5030590;28;20139;-65
2023/12/20 04:03:40;;;;;;;33.87;8.67;;;;;;;;;;5029696;28;20053;-66
2023/12/20 04:06:06;;;;;;;45.03;5.93;;;;;;;;;;5030623;28;20485;-66
2023/12/20 04:08:32;;;;;;;42.63;5.97;;;;;;;;;;5029886;28;20042;-65
2023/12/20 04:10:59;;;;;;;36.80;7.13;;;;;;;;;;5030699;28;20042;-65
2023/12/20 04:13:24;;;;;;;30.13;6.27;;;;;;;;;;5029777;28;20077;-65
2023/12/20 04:15:51;;;;;;;33.47;6.07;;;;;;;;;;5030503;28;20081;-66
2023/12/20 04:18:17;;;;;;;37.17;7.03;;;;;;;;;;5030293;28;20065;-65
2023/12/20 04:20:43;;;;;;;29.57;5.47;;;;;;;;;;5031227;28;20056;-65
2023/12/20 04:23:09;;;;;;;38.23;7.27;;;;;;;;;;5030440;28;20033;-65
2023/12/20 04:25:35;;;;;;;34.80;6.30;;;;;;;;;;5030440;28;20052;-65
2023/12/20 04:28:01;;;;;;;43.40;7.13;;;;;;;;;;5029578;28;20448;-65
2023/12/20 04:30:27;;;;;;;51.67;7.73;;;;;;;;;;5029759;28;20053;-65
2023/12/20 04:32:53;;;;;;;38.03;7.23;;;;;;;;;;5030071;28;20125;-65
2023/12/20 04:35:19;;;;;;;38.20;6.83;;;;;;;;;;5028957;28;20073;-65
2023/12/20 04:37:45;;;;;;;27.80;5.23;;;;;;;;;;5029582;28;20041;-65
2023/12/20 04:40:11;;;;;;;51.13;7.43;;;;;;;;;;5030451;28;20054;-65
2023/12/20 04:42:37;;;;;;;29.37;6.53;;;;;;;;;;5046486;28;20398;-65
2023/12/20 04:45:03;;;;;;;33.47;5.77;;;;;;;;;;5038075;28;20460;-66
2023/12/20 04:47:29;;;;;;;38.17;6.47;;;;;;;;;;5030792;28;20045;-65
2023/12/20 04:49:56;;;;;;;30.27;8.20;;;;;;;;;;5030482;28;20499;-65
2023/12/20 04:52:22;;;;;;;31.03;6.27;;;;;;;;;;5030447;28;20180;-67
2023/12/20 04:54:48;;;;;;;35.13;6.33;;;;;;;;;;5030654;28;20056;-66
2023/12/20 04:57:14;;;;;;;33.13;5.93;;;;;;;;;;5018705;28;20053;-66
2023/12/20 04:59:41;;;;;;;39.20;6.83;;;;;;;;;;5028216;28;20051;-66
2023/12/20 05:02:07;;;;;;;37.37;8.27;;;;;;;;;;5030670;28;20512;-66
2023/12/20 05:04:33;;;;;;;37.67;7.23;;;;;;;;;;5029877;28;20049;-65
2023/12/20 05:06:59;;;;;;;33.43;7.67;;;;;;;;;;5030178;28;20105;-66
2023/12/20 05:09:25;;;;;;;33.17;6.33;;;;;;;;;;5030263;28;20049;-65
2023/12/20 05:11:51;;;;;;;43.73;6.90;;;;;;;;;;5030107;28;20495;-65
2023/12/20 05:14:17;;;;;;;31.13;5.97;;;;;;;;;;5030421;28;20097;-65
2023/12/20 05:16:42;;;;;;;39.40;6.60;;;;;;;;;;5030643;28;20136;-66
2023/12/20 05:19:08;;;;;;;31.10;7.20;;;;;;;;;;5030259;28;20045;-65
2023/12/20 05:21:35;;;;;;;34.20;6.10;;;;;;;;;;5029811;28;20049;-65
2023/12/20 05:24:01;;;;;;;43.70;7.03;;;;;;;;;;5030154;28;20049;-65
2023/12/20 05:26:29;;;;;;;32.77;6.60;;;;;;;;;;5029998;28;20041;-65
2023/12/20 05:28:55;;;;;;;40.37;6.77;;;;;;;;;;5030025;28;20427;-65
2023/12/20 05:31:21;;;;;;;43.57;6.93;;;;;;;;;;5029450;28;20044;-66
2023/12/20 05:33:47;;;;;;;34.37;6.87;;;;;;;;;;5030391;28;20049;-66
2023/12/20 05:36:14;;;;;;;36.73;7.67;;;;;;;;;;5029786;28;20049;-66
2023/12/20 05:38:40;;;;;;;27.17;5.73;;;;;;;;;;5029149;28;20060;-65
2023/12/20 05:41:07;;;;;;;44.23;8.73;;;;;;;;;;5028538;28;20041;-65
2023/12/20 05:43:33;;;;;;;30.47;6.10;;;;;;;;;;5027782;28;20132;-65
2023/12/20 05:45:59;;;;;;;40.43;6.27;;;;;;;;;;5027009;28;20046;-65
2023/12/20 05:48:25;;;;;;;33.03;7.07;;;;;;;;;;5028828;28;20041;-65
2023/12/20 05:50:51;;;;;;;36.87;5.53;;;;;;;;;;5030065;28;20049;-65
2023/12/20 05:53:17;;;;;;;41.97;7.10;;;;;;;;;;5029564;28;20144;-66
2023/12/20 05:55:43;;;;;;;42.40;7.53;;;;;;;;;;5029130;28;20045;-65
2023/12/20 05:58:09;;;;;;;37.60;7.03;;;;;;;;;;5029721;28;20048;-65
2023/12/20 06:00:35;;;;;;;33.53;6.43;;;;;;;;;;5033373;28;20042;-66
2023/12/20 06:03:01;;;;;;;29.40;5.63;;;;;;;;;;5028931;28;20529;-66
2023/12/20 06:05:27;;;;;;;38.90;6.70;;;;;;;;;;5029767;28;20049;-67
2023/12/20 06:07:54;;;;;;;34.37;5.80;;;;;;;;;;5035246;28;20041;-66
2023/12/20 06:10:21;;;;;;;39.10;6.50;;;;;;;;;;5028480;28;20115;-65
2023/12/20 06:12:50;;;;;;;43.30;7.10;;;;;;;;;;5029145;28;20053;-66
2023/12/20 06:15:15;;;;;;;33.37;7.07;;;;;;;;;;5029323;28;20056;-65
2023/12/20 06:17:41;;;;;;;38.97;6.60;;;;;;;;;;5028687;28;20053;-65
2023/12/20 06:20:08;;;;;;;38.93;7.63;;;;;;;;;;5017074;28;20046;-65
2023/12/20 06:22:35;;;;;;;46.50;6.63;;;;;;;;;;5009014;28;20085;-66
2023/12/20 06:25:01;;;;;;;37.17;7.27;;;;;;;;;;5048426;28;20255;-65
2023/12/20 06:27:27;;;;;;;38.63;5.53;;;;;;;;;;5049145;28;20088;-65
2023/12/20 06:29:53;;;;;;;34.83;6.07;;;;;;;;;;5038578;28;20077;-66
2023/12/20 06:32:19;;;;;;;33.30;6.43;;;;;;;;;;5027833;28;20045;-66
2023/12/20 06:34:45;;;;;;;30.43;5.93;;;;;;;;;;5028731;28;20041;-65
2023/12/20 06:37:11;;;;;;;23.80;5.67;;;;;;;;;;5028917;28;20137;-66
2023/12/20 06:39:37;;;;;;;31.60;5.47;;;;;;;;;;5029806;28;20111;-65
2023/12/20 06:42:03;;;;;;;34.67;5.10;;;;;;;;;;5029034;28;20056;-65
2023/12/20 06:44:29;;;;;;;32.80;6.47;;;;;;;;;;5028831;28;20103;-65
2023/12/20 06:46:55;;;;;;;35.70;6.90;;;;;;;;;;5029076;28;20447;-65
2023/12/20 06:49:21;;;;;;;39.03;6.77;;;;;;;;;;5029508;28;20049;-65
2023/12/20 06:51:47;;;;;;;30.53;5.57;;;;;;;;;;5048122;28;20045;-65
2023/12/20 06:54:13;;;;;;;39.63;5.33;;;;;;;;;;5048920;28;20080;-65
2023/12/20 06:56:39;;;;;;;36.73;6.50;;;;;;;;;;5048450;28;20051;-65
2023/12/20 06:59:06;;;;;;;31.07;5.67;;;;;;;;;;5028992;28;20046;-66
2023/12/20 07:01:32;;;;;;;27.53;4.90;;;;;;;;;;5031831;28;20095;-65
2023/12/20 07:03:58;;;;;;;28.17;6.03;;;;;;;;;;5027528;28;20422;-65
2023/12/20 07:06:25;;;;;;;29.37;5.27;;;;;;;;;;5027497;28;20048;-65
2023/12/20 07:08:51;;;;;;;23.57;5.27;;;;;;;;;;5026862;28;20053;-65
2023/12/20 07:11:17;;;;;;;37.83;6.43;;;;;;;;;;5027935;28;20534;-66
2023/12/20 07:13:43;;;;;;;31.43;6.53;;;;;;;;;;5028052;28;20080;-65
2023/12/20 07:16:09;;;;;;;28.70;5.50;;;;;;;;;;5048731;28;20049;-65
2023/12/20 07:18:35;;;;;;;39.67;6.10;;;;;;;;;;5029539;28;20052;-65
2023/12/20 07:21:01;;;;;;;22.53;4.87;;;;;;;;;;5027421;28;20057;-65
2023/12/20 07:23:27;;;;;;;36.53;6.57;;;;;;;;;;5028300;28;20057;-65
2023/12/20 07:25:53;;;;;;;36.33;5.83;;;;;;;;;;5028872;28;20037;-65
2023/12/20 07:28:19;;;;;;;29.97;4.83;;;;;;;;;;5030761;28;20499;-66
2023/12/20 07:30:45;;;;;;;36.40;6.40;;;;;;;;;;5032360;28;20045;-66
2023/12/20 07:33:12;;;;;;;31.10;6.77;;;;;;;;;;5051540;28;20460;-66
2023/12/20 07:35:38;;;;;;;34.00;5.37;;;;;;;;;;5043263;28;20626;-65
2023/12/20 07:38:04;;;;;;;35.03;6.10;;;;;;;;;;5032060;28;20095;-65
2023/12/20 07:40:30;;;;;;;33.20;6.33;;;;;;;;;;5031823;28;20154;-65
2023/12/20 07:42:58;;;;;;;31.07;7.07;;;;;;;;;;5032063;28;20108;-65
2023/12/20 07:45:24;;;;;;;35.07;6.00;;;;;;;;;;5031574;28;20132;-65
2023/12/20 07:47:50;;;;;;;37.77;5.40;;;;;;;;;;5025218;28;20077;-65
2023/12/20 07:50:16;;;;;;;42.33;6.87;;;;;;;;;;5032016;28;20058;-65
2023/12/20 07:52:42;;;;;;;37.30;5.33;;;;;;;;;;5031757;28;20179;-65
2023/12/20 07:55:08;;;;;;;24.43;4.60;;;;;;;;;;5031993;28;20120;-66
2023/12/20 07:57:34;;;;;;;31.97;7.13;;;;;;;;;;5031472;28;20488;-65
2023/12/20 08:00:00;;;;;;;33.57;5.33;;;;;;;;;;5031127;28;20049;-66
2023/12/20 08:02:26;;;;;;;32.70;5.37;;;;;;;;;;5031193;28;20045;-65
2023/12/20 08:04:52;;;;;;;30.30;5.50;;;;;;;;;;5028485;28;20046;-65
2023/12/20 08:07:18;;;;;;;41.33;7.10;;;;;;;;;;5030171;28;20196;-66
2023/12/20 08:09:44;;;;;;;48.60;7.10;;;;;;;;;;5030186;28;20056;-66
2023/12/20 08:12:11;;;;;;;32.77;6.93;;;;;;;;;;5029210;28;20475;-65
2023/12/20 08:14:37;;;;;;;40.47;6.00;;;;;;;;;;5029604;28;20056;-65
2023/12/20 08:17:03;;;;;;;31.20;6.80;;;;;;;;;;5029904;28;20041;-66
2023/12/20 08:19:29;;;;;;;35.73;6.90;;;;;;;;;;5030346;28;20078;-66
2023/12/20 08:21:55;;;;;;;35.90;6.53;;;;;;;;;;5030047;28;20432;-65
2023/12/20 08:24:21;;;;;;;26.73;5.77;;;;;;;;;;5028881;28;20054;-66
2023/12/20 08:26:47;;;;;;;32.03;5.43;;;;;;;;;;5028614;28;20060;-65
2023/12/20 08:29:14;;;;;;;28.77;5.53;;;;;;;;;;5027641;28;20404;-65
2023/12/20 08:31:40;;;;;;;38.50;5.60;;;;;;;;;;5029596;28;20121;-65
2023/12/20 08:34:06;;;;;;;42.40;6.80;;;;;;;;;;5029782;28;20069;-65
2023/12/20 08:36:32;;;;;;;40.80;6.00;;;;;;;;;;5029604;28;20163;-65
2023/12/20 08:39:00;;;;;;;27.40;6.80;;;;;;;;;;5029973;28;20056;-65
2023/12/20 08:41:26;;;;;;;29.07;5.03;;;;;;;;;;5037871;28;20053;-65
2023/12/20 08:43:52;;;;;;;35.47;6.70;;;;;;;;;;5029538;28;20382;-66
2023/12/20 08:46:18;;;;;;;31.50;6.10;;;;;;;;;;5029894;28;20072;-65
2023/12/20 08:48:44;;;;;;;38.60;8.13;;;;;;;;;;5029345;28;20518;-65
2023/12/20 08:51:11;;;;;;;31.80;5.70;;;;;;;;;;5028320;28;20363;-65
2023/12/20 08:53:37;;;;;;;30.83;5.10;;;;;;;;;;5028601;28;20052;-65
2023/12/20 08:56:03;;;;;;;40.07;6.10;;;;;;;;;;5026579;28;20099;-65
2023/12/20 08:58:29;;;;;;;29.17;5.90;;;;;;;;;;5027851;28;20041;-65
2023/12/20 09:00:55;;;;;;;25.33;6.00;;;;;;;;;;5029202;28;20122;-65
2023/12/20 09:03:21;;;;;;;25.70;6.30;;;;;;;;;;5029463;28;20164;-65
2023/12/20 09:05:47;;;;;;;34.43;6.07;;;;;;;;;;5028659;28;20106;-65
2023/12/20 09:08:13;;;;;;;27.80;5.73;;;;;;;;;;5028924;28;20041;-65
2023/12/20 09:10:39;;;;;;;30.07;5.30;;;;;;;;;;5027846;28;20053;-65
2023/12/20 09:13:05;;;;;;;25.07;5.20;;;;;;;;;;5027470;28;20057;-65
2023/12/20 09:15:33;;;;;;;25.73;5.40;;;;;;;;;;5027395;28;20427;-65
2023/12/20 09:18:00;;;;;;;33.50;5.53;;;;;;;;;;5028514;28;20456;-65
2023/12/20 09:20:27;;;;;;;26.43;5.13;;;;;;;;;;5029845;28;20518;-65
2023/12/20 09:22:53;;;;;;;30.70;5.47;;;;;;;;;;5028567;28;20478;-65
2023/12/20 09:25:19;;;;;;;35.30;5.53;;;;;;;;;;5028707;28;20396;-65
2023/12/20 09:27:45;;;;;;;20.90;4.63;;;;;;;;;;5027188;28;20084;-65
2023/12/20 09:30:12;;;;;;;31.07;5.30;;;;;;;;;;5028385;28;20049;-65
2023/12/20 09:32:38;;;;;;;33.60;7.03;;;;;;;;;;5027169;28;20045;-65
2023/12/20 09:35:06;;;;;;;22.83;5.40;;;;;;;;;;5028940;28;20049;-65
2023/12/20 09:37:32;;;;;;;22.07;4.43;;;;;;;;;;5025748;28;20045;-65
2023/12/20 09:39:59;;;;;;;23.50;5.17;;;;;;;;;;5026870;28;20045;-65
2023/12/20 09:42:40;;;;;;;28.13;5.23;;;;;;;;;;5027425;28;20060;-64
2023/12/20 09:45:09;;;;;;;28.17;4.73;;;;;;;;;;5026273;28;20508;-65
2023/12/20 09:47:35;;;;;;;31.27;5.00;;;;;;;;;;5028034;28;20080;-65
2023/12/20 09:50:02;;;;;;;30.17;5.23;;;;;;;;;;5027762;28;20056;-65
2023/12/20 09:52:29;;;;;;;27.13;4.30;;;;;;;;;;5036258;28;20100;-65
2023/12/20 09:54:56;;;;;;;29.73;5.70;;;;;;;;;;5027427;28;20092;-65
2023/12/20 09:57:22;;;;;;;22.47;4.33;;;;;;;;;;5026792;28;20120;-65
2023/12/20 09:59:48;;;;;;;14.50;5.03;;;;;;;;;;5027771;28;20077;-65
2023/12/20 10:02:14;;;;;;;25.40;6.13;;;;;;;;;;5026606;28;20056;-65
2023/12/20 10:04:46;;;;;;;26.00;4.23;;;;;;;;;;5027959;28;20064;-66
2023/12/20 10:07:12;;;;;;;24.13;3.63;;;;;;;;;;5027856;28;20048;-66
2023/12/20 10:09:38;;;;;;;18.87;3.57;;;;;;;;;;5028162;28;20080;-66
2023/12/20 10:12:05;;;;;;;15.63;3.03;;;;;;;;;;5027655;28;20488;-66
2023/12/20 10:14:32;;;;;;;18.47;2.90;;;;;;;;;;5027672;28;20424;-66
2023/12/20 10:17:02;;;;;;;14.50;2.13;;;;;;;;;;5028911;28;20041;-66
2023/12/20 10:19:28;;;;;;;9.47;1.50;;;;;;;;;;5027015;28;20049;-66
2023/12/20 10:21:54;;;;;;;8.00;1.57;;;;;;;;;;5028068;28;20423;-66
2023/12/20 10:24:20;;;;;;;7.17;1.63;;;;;;;;;;5027089;28;20068;-66
2023/12/20 10:26:46;;;;;;;18.47;2.50;;;;;;;;;;5027239;28;20045;-65
2023/12/20 10:29:13;;;;;;;17.23;2.97;;;;;;;;;;5027609;28;20061;-66
2023/12/20 10:31:39;;;;;;;13.37;2.07;;;;;;;;;;5026750;28;20053;-66
2023/12/20 10:34:05;;;;;;;14.13;3.03;;;;;;;;;;5026907;28;20053;-65
2023/12/20 10:36:32;;;;;;;16.63;2.13;;;;;;;;;;5026776;28;20052;-65
2023/12/20 10:38:58;;;;;;;18.27;3.27;;;;;;;;;;5007869;28;20050;-65
2023/12/20 10:41:29;;;;;;;21.67;3.33;;;;;;;;;;5024364;28;20642;-66
2023/12/20 10:44:02;;;;;;;11.33;2.60;;;;;;;;;;5026971;28;20429;-65
2023/12/20 10:46:29;;;;;;;21.30;2.73;;;;;;;;;;5024060;28;20518;-66
2023/12/20 10:48:56;;;;;;;15.90;2.67;;;;;;;;;;5027667;28;20183;-65
2023/12/20 10:51:22;;;;;;;14.53;1.97;;;;;;;;;;5028342;28;20085;-66
2023/12/20 10:53:49;;;;;;;11.30;2.13;;;;;;;;;;5027286;28;20049;-66
2023/12/20 10:56:19;;;;;;;11.10;1.80;;;;;;;;;;5027802;28;20506;-65
2023/12/20 10:58:46;;;;;;;11.03;1.97;;;;;;;;;;5027255;28;20453;-66
2023/12/20 11:01:14;;;;;;;9.70;2.57;;;;;;;;;;5026366;28;20087;-65
2023/12/20 11:03:43;;;;;;;11.20;2.67;;;;;;;;;;5029010;28;20049;-66
2023/12/20 11:06:16;;;;;;;12.50;2.50;;;;;;;;;;5031620;28;20033;-65
2023/12/20 11:08:48;;;;;;;19.60;3.60;;;;;;;;;;5030521;28;20054;-65
2023/12/20 11:11:30;;;;;;;12.55;2.00;;;;;;;;;;5031724;28;20049;-66
2023/12/20 11:14:01;;;;;;;14.50;2.43;;;;;;;;;;5046952;28;20510;-66
2023/12/20 11:16:27;;;;;;;10.03;1.53;;;;;;;;;;5031608;28;20111;-65
2023/12/20 11:18:53;;;;;;;10.93;1.90;;;;;;;;;;5030901;28;20053;-65
2023/12/20 11:21:19;;;;;;;13.47;3.00;;;;;;;;;;5028682;28;20064;-65
2023/12/20 11:23:45;;;;;;;14.10;2.10;;;;;;;;;;5030300;28;20045;-66
2023/12/20 11:26:12;;;;;;;11.57;3.13;;;;;;;;;;5031201;28;20100;-65
2023/12/20 11:28:38;;;;;;;10.73;1.63;;;;;;;;;;5030560;28;20061;-66
2023/12/20 11:31:04;;;;;;;19.70;1.93;;;;;;;;;;5031198;28;20053;-66
2023/12/20 11:33:31;;;;;;;17.70;2.83;;;;;;;;;;5029729;28;20045;-66
2023/12/20 11:35:59;;;;;;;20.63;3.30;;;;;;;;;;5027138;28;20107;-65
2023/12/20 11:38:25;;;;;;;14.73;3.17;;;;;;;;;;5031550;28;20057;-65
2023/12/20 11:40:51;;;;;;;19.77;4.90;;;;;;;;;;5030573;28;20119;-65
2023/12/20 11:43:35;;;;;;;16.77;3.10;;;;;;;;;;5030667;28;20049;-66
2023/12/20 11:46:09;;;;;;;20.17;2.80;;;;;;;;;;5030781;28;20069;-65
2023/12/20 11:48:40;;;;;;;14.85;2.72;;;;;;;;;;5030162;28;20092;-65
2023/12/20 11:51:12;;;;;;;15.33;2.30;;;;;;;;;;5031252;28;20060;-65
2023/12/20 11:53:38;;;;;;;12.95;2.22;;;;;;;;;;5029948;28;20049;-66
2023/12/20 11:56:06;;;;;;;15.57;2.43;;;;;;;;;;5030661;28;20618;-66
2023/12/20 11:58:32;;;;;;;11.27;2.20;;;;;;;;;;5030429;28;20123;-66
2023/12/20 12:00:58;;;;;;;20.30;2.50;;;;;;;;;;5029906;28;20056;-66
2023/12/20 12:03:24;;;;;;;16.80;3.53;;;;;;;;;;5034942;28;20052;-65
2023/12/20 12:05:50;;;;;;;14.80;2.07;;;;;;;;;;5030586;28;20136;-66
2023/12/20 12:08:19;;;;;;;14.23;3.93;;;;;;;;;;5030763;28;20152;-66
2023/12/20 12:10:46;;;;;;;9.93;2.00;;;;;;;;;;5028892;28;20088;-66
2023/12/20 12:13:14;;;;;;;13.27;1.83;;;;;;;;;;5030481;28;20053;-65
2023/12/20 12:15:42;;;;;;;11.20;1.70;;;;;;;;;;5030749;28;20049;-66
2023/12/20 12:18:08;;;;;;;14.03;1.83;;;;;;;;;;5030441;28;20045;-65
2023/12/20 12:20:34;;;;;;;15.70;2.50;;;;;;;;;;5030036;28;20365;-66
2023/12/20 12:23:06;;;;;;;12.13;2.03;;;;;;;;;;5030123;28;20128;-66
2023/12/20 12:25:35;;;;;;;18.67;4.17;;;;;;;;;;5028940;28;20038;-66
2023/12/20 12:28:01;;;;;;;13.07;3.43;;;;;;;;;;5028422;28;20064;-67
2023/12/20 12:30:27;;;;;;;21.63;2.83;;;;;;;;;;5029849;28;20042;-66
2023/12/20 12:32:54;;;;;;;15.00;1.93;;;;;;;;;;5029140;28;20037;-66
2023/12/20 12:35:20;;;;;;;17.83;2.70;;;;;;;;;;5027828;28;20037;-67
2023/12/20 12:37:47;;;;;;;12.87;2.03;;;;;;;;;;5030162;28;20041;-67
2023/12/20 12:40:14;;;;;;;20.90;3.80;;;;;;;;;;5029003;28;20045;-66
2023/12/20 12:42:40;;;;;;;17.17;2.33;;;;;;;;;;5027919;28;20403;-66
2023/12/20 12:45:07;;;;;;;15.27;2.63;;;;;;;;;;5029253;28;20057;-66
2023/12/20 12:47:33;;;;;;;11.43;1.83;;;;;;;;;;5027236;28;20056;-66
2023/12/20 12:49:59;;;;;;;21.07;2.40;;;;;;;;;;5029177;28;20053;-67
2023/12/20 12:52:26;;;;;;;10.47;2.13;;;;;;;;;;5030233;28;20049;-66
2023/12/20 12:54:52;;;;;;;15.70;2.67;;;;;;;;;;5029502;28;20053;-66
2023/12/20 12:57:18;;;;;;;17.50;2.90;;;;;;;;;;5029784;28;20415;-66
2023/12/20 12:59:46;;;;;;;19.23;3.37;;;;;;;;;;5028818;28;20140;-67
2023/12/20 13:02:13;;;;;;;14.10;1.70;;;;;;;;;;5029275;28;20046;-66
2023/12/20 13:04:39;;;;;;;12.13;2.30;;;;;;;;;;5029325;28;20067;-66
2023/12/20 13:07:05;;;;;;;20.07;3.40;;;;;;;;;;5029690;28;20470;-66
2023/12/20 13:09:31;;;;;;;15.23;2.33;;;;;;;;;;5029186;28;20057;-67
2023/12/20 13:11:58;;;;;;;19.27;3.63;;;;;;;;;;5027471;28;20076;-66
2023/12/20 13:14:24;;;;;;;10.73;2.27;;;;;;;;;;5028704;28;20053;-66
2023/12/20 13:16:50;;;;;;;9.63;2.80;;;;;;;;;;5029621;28;20128;-66
2023/12/20 13:19:16;;;;;;;15.30;2.50;;;;;;;;;;5029335;28;20080;-66
2023/12/20 13:21:42;;;;;;;17.53;3.23;;;;;;;;;;5027917;28;20159;-66
2023/12/20 13:24:08;;;;;;;12.63;1.77;;;;;;;;;;5029469;28;20037;-66
2023/12/20 13:26:34;;;;;;;15.23;3.07;;;;;;;;;;5027836;28;20049;-66
2023/12/20 13:29:01;;;;;;;10.63;2.63;;;;;;;;;;5032409;28;20049;-66
2023/12/20 13:31:27;;;;;;;19.27;2.30;;;;;;;;;;5030161;28;20160;-66
2023/12/20 13:33:53;;;;;;;13.13;2.60;;;;;;;;;;5029674;28;20069;-66
2023/12/20 13:36:19;;;;;;;16.53;2.27;;;;;;;;;;5028205;28;20060;-66
2023/12/20 13:38:45;;;;;;;14.93;2.60;;;;;;;;;;5030057;28;20045;-66
2023/12/20 13:41:11;;;;;;;21.90;6.93;;;;;;;;;;5029592;28;20412;-66
2023/12/20 13:43:38;;;;;;;12.70;2.07;;;;;;;;;;5029265;28;20120;-66
2023/12/20 13:46:04;;;;;;;31.30;10.40;;;;;;;;;;5029399;28;20507;-67
2023/12/20 13:48:30;;;;;;;22.10;4.40;;;;;;;;;;5028344;28;20899;-67
2023/12/20 13:50:56;;;;;;;26.03;7.03;;;;;;;;;;5029272;28;20046;-66
2023/12/20 13:53:22;;;;;;;23.33;4.70;;;;;;;;;;5029249;28;20080;-66
2023/12/20 13:55:49;;;;;;;24.60;3.10;;;;;;;;;;5028253;28;20040;-67
2023/12/20 13:58:15;;;;;;;15.40;3.03;;;;;;;;;;5028890;28;20046;-66
2023/12/20 14:00:41;;;;;;;16.63;4.23;;;;;;;;;;5027300;28;20049;-66
2023/12/20 14:03:07;;;;;;;25.37;4.50;;;;;;;;;;5025951;28;20048;-66
2023/12/20 14:05:35;;;;;;;24.63;3.50;;;;;;;;;;5026612;28;20042;-66
2023/12/20 14:08:01;;;;;;;17.57;3.53;;;;;;;;;;5028166;28;20049;-66
2023/12/20 14:10:27;;;;;;;19.53;3.57;;;;;;;;;;5030125;28;20111;-67
2023/12/20 14:12:54;;;;;;;19.30;3.87;;;;;;;;;;5028897;28;20057;-66
2023/12/20 14:15:20;;;;;;;23.60;4.57;;;;;;;;;;5028364;28;20064;-66
2023/12/20 14:17:46;;;;;;;17.63;4.27;;;;;;;;;;5029808;28;20037;-67
2023/12/20 14:20:13;;;;;;;18.97;3.43;;;;;;;;;;5026567;28;20492;-66
2023/12/20 14:22:43;;;;;;;33.47;3.93;;;;;;;;;;5026132;28;20112;-66
2023/12/20 14:25:11;;;;;;;19.27;3.30;;;;;;;;;;5026613;28;20037;-66